createdAt,value
2019-03-04T00:01:46.092Z,6.43
2019-03-04T00:04:18.570Z,7.67
2019-03-04T00:06:50.270Z,7.77
2019-03-04T00:09:22.009Z,12.30
2019-03-04T00:11:53.638Z,80.20
2019-03-04T00:14:25.379Z,83.13
2019-03-04T00:16:58.581Z,101.87
2019-03-04T00:19:30.420Z,121.83
2019-03-04T00:22:02.151Z,31.13
2019-03-04T00:24:34.782Z,127.80
2019-03-04T00:27:06.379Z,28.23
2019-03-04T00:29:37.965Z,11.03
2019-03-04T00:32:09.613Z,54.53
2019-03-04T00:34:44.510Z,70.40
2019-03-04T00:37:16.369Z,58.80
2019-03-04T00:39:48.417Z,44.77
2019-03-04T00:42:23.140Z,12.93
2019-03-04T00:44:54.890Z,10.20
2019-03-04T00:47:26.756Z,9.23
2019-03-04T00:49:58.561Z,9.17
2019-03-04T00:52:29.961Z,9.77
2019-03-04T00:55:05.071Z,9.50
2019-03-04T00:57:36.736Z,8.80
2019-03-04T01:00:13.713Z,8.07
2019-03-04T01:02:45.487Z,7.70
2019-03-04T01:05:17.363Z,8.50
2019-03-04T01:07:49.080Z,7.47
2019-03-04T01:10:21.070Z,7.37
2019-03-04T01:12:52.754Z,7.03
2019-03-04T01:15:25.254Z,7.90
2019-03-04T01:17:57.865Z,6.57
2019-03-04T01:20:29.612Z,7.27
2019-03-04T01:23:01.347Z,6.93
2019-03-04T01:25:33.409Z,6.33
2019-03-04T01:28:05.031Z,6.47
2019-03-04T01:30:39.255Z,6.47
2019-03-04T01:33:10.959Z,7.13
2019-03-04T01:35:43.533Z,7.60
2019-03-04T01:38:15.594Z,8.60
2019-03-04T01:40:47.346Z,8.57
2019-03-04T01:43:19.029Z,9.00
2019-03-04T01:45:50.850Z,8.57
2019-03-04T01:48:23.838Z,8.27
2019-03-04T01:50:55.411Z,7.37
2019-03-04T01:53:27.043Z,8.13
2019-03-04T01:55:59.038Z,8.17
2019-03-04T01:58:30.649Z,8.70
2019-03-04T02:01:02.570Z,8.50
2019-03-04T02:03:34.476Z,7.73
2019-03-04T02:06:06.145Z,8.30
2019-03-04T02:08:37.804Z,7.53
2019-03-04T02:11:09.473Z,7.53
2019-03-04T02:13:41.005Z,8.07
2019-03-04T02:16:12.905Z,11.77
2019-03-04T02:18:44.582Z,10.47
2019-03-04T02:21:16.295Z,9.33
2019-03-04T02:23:48.477Z,9.10
2019-03-04T02:26:27.359Z,8.08
2019-03-04T02:28:59.383Z,9.25
2019-03-04T02:31:31.013Z,9.40
2019-03-04T02:34:03.177Z,9.73
2019-03-04T02:36:34.960Z,9.45
2019-03-04T02:39:08.000Z,9.90
2019-03-04T02:41:39.715Z,11.27
2019-03-04T02:44:11.388Z,12.17
2019-03-04T02:46:43.153Z,17.77
2019-03-04T02:49:14.933Z,20.33
2019-03-04T02:51:46.818Z,21.07
2019-03-04T02:54:18.487Z,19.53
2019-03-04T02:56:50.093Z,19.60
2019-03-04T02:59:21.732Z,19.37
2019-03-04T03:01:53.289Z,18.40
2019-03-04T03:04:24.946Z,20.07
2019-03-04T03:06:57.050Z,20.20
2019-03-04T03:09:28.671Z,20.57
2019-03-04T03:12:00.464Z,21.33
2019-03-04T03:14:32.121Z,21.40
2019-03-04T03:17:05.095Z,23.83
2019-03-04T03:19:36.842Z,21.50
2019-03-04T03:22:08.677Z,20.77
2019-03-04T03:24:40.483Z,22.17
2019-03-04T03:27:12.729Z,22.80
2019-03-04T03:29:44.443Z,21.27
2019-03-04T03:32:16.264Z,17.17
2019-03-04T03:34:47.848Z,15.53
2019-03-04T03:37:19.525Z,13.93
2019-03-04T03:39:51.250Z,13.17
2019-03-04T03:42:23.112Z,14.13
2019-03-04T03:44:54.914Z,13.00
2019-03-04T03:47:26.609Z,16.80
2019-03-04T03:49:58.750Z,16.23
2019-03-04T03:52:30.373Z,16.70
2019-03-04T03:55:02.030Z,14.83
2019-03-04T03:57:33.786Z,14.83
2019-03-04T04:00:07.240Z,15.97
2019-03-04T04:02:39.087Z,17.03
2019-03-04T04:05:10.982Z,17.73
2019-03-04T04:07:42.854Z,18.83
2019-03-04T04:10:15.154Z,19.83
2019-03-04T04:12:47.098Z,22.27
2019-03-04T04:15:19.256Z,18.80
2019-03-04T04:17:50.820Z,20.07
2019-03-04T04:20:22.583Z,17.60
2019-03-04T04:22:54.283Z,17.03
2019-03-04T04:25:26.123Z,18.90
2019-03-04T04:27:57.982Z,20.13
2019-03-04T04:30:31.432Z,19.40
2019-03-04T04:33:03.490Z,18.50
2019-03-04T04:35:35.428Z,18.67
2019-03-04T04:38:07.002Z,20.03
2019-03-04T04:40:38.819Z,17.90
2019-03-04T04:43:10.616Z,18.67
2019-03-04T04:45:42.378Z,18.53
2019-03-04T04:48:14.081Z,17.53
2019-03-04T04:50:45.685Z,16.83
2019-03-04T04:53:17.319Z,17.60
2019-03-04T04:55:49.063Z,16.70
2019-03-04T04:58:20.756Z,15.73
2019-03-04T05:00:53.080Z,16.30
2019-03-04T05:03:24.753Z,18.53
2019-03-04T05:05:56.400Z,18.90
2019-03-04T05:08:27.981Z,18.17
2019-03-04T05:10:59.681Z,23.60
2019-03-04T05:13:31.593Z,20.47
2019-03-04T05:16:03.490Z,20.30
2019-03-04T05:18:35.107Z,18.97
2019-03-04T05:21:06.855Z,19.20
2019-03-04T05:23:38.538Z,18.97
2019-03-04T05:26:10.390Z,20.13
2019-03-04T05:28:42.383Z,23.67
2019-03-04T05:31:14.017Z,23.07
2019-03-04T05:33:45.604Z,23.53
2019-03-04T05:36:17.286Z,22.00
2019-03-04T05:38:48.952Z,20.87
2019-03-04T05:41:20.630Z,20.33
2019-03-04T05:43:52.576Z,20.73
2019-03-04T05:46:24.270Z,35.13
2019-03-04T05:48:56.015Z,31.07
2019-03-04T05:51:27.652Z,25.17
2019-03-04T05:53:59.300Z,26.43
2019-03-04T05:56:30.954Z,24.70
2019-03-04T05:59:02.759Z,23.63
2019-03-04T06:01:36.859Z,28.70
2019-03-04T06:04:13.683Z,30.13
2019-03-04T06:06:55.272Z,26.40
2019-03-04T06:09:27.253Z,26.67
2019-03-04T06:11:58.892Z,27.30
2019-03-04T06:14:30.880Z,26.47
2019-03-04T06:17:02.695Z,29.07
2019-03-04T06:19:34.798Z,28.57
2019-03-04T06:22:07.126Z,26.77
2019-03-04T06:24:38.639Z,24.47
2019-03-04T06:27:10.822Z,26.63
2019-03-04T06:29:42.808Z,25.23
2019-03-04T06:32:14.606Z,30.63
2019-03-04T06:34:46.338Z,29.00
2019-03-04T06:37:17.958Z,30.40
2019-03-04T06:39:50.236Z,30.27
2019-03-04T06:42:22.061Z,28.20
2019-03-04T06:44:53.969Z,31.63
2019-03-04T06:47:25.617Z,30.77
2019-03-04T06:49:57.205Z,30.23
2019-03-04T06:52:29.342Z,31.33
2019-03-04T06:55:22.572Z,32.77
2019-03-04T06:57:55.700Z,31.27
2019-03-04T07:00:57.871Z,28.30
2019-03-04T07:03:46.602Z,27.80
2019-03-04T07:06:18.278Z,24.23
2019-03-04T07:09:17.235Z,29.33
2019-03-04T07:11:53.704Z,21.80
2019-03-04T07:14:25.575Z,26.00
2019-03-04T07:16:57.298Z,30.87
2019-03-04T07:19:31.437Z,27.73
2019-03-04T07:22:03.395Z,28.67
2019-03-04T07:24:35.010Z,26.87
2019-03-04T07:27:06.788Z,27.47
2019-03-04T07:29:38.488Z,25.53
2019-03-04T07:32:10.355Z,24.40
2019-03-04T07:34:42.400Z,30.13
2019-03-04T07:37:17.002Z,26.93
2019-03-04T07:39:48.630Z,26.23
2019-03-04T07:42:21.474Z,24.77
2019-03-04T07:44:54.477Z,25.17
2019-03-04T07:47:26.406Z,23.93
2019-03-04T07:49:58.120Z,23.83
2019-03-04T07:52:30.192Z,24.27
2019-03-04T07:55:02.325Z,23.50
2019-03-04T07:57:34.583Z,25.23
2019-03-04T08:00:07.157Z,22.83
2019-03-04T08:02:39.142Z,24.33
2019-03-04T08:05:11.460Z,48.87
2019-03-04T08:07:49.485Z,24.37
2019-03-04T08:11:33.863Z,21.63
2019-03-04T08:14:06.268Z,22.60
2019-03-04T08:16:38.430Z,23.70
2019-03-04T08:19:10.303Z,20.67
2019-03-04T08:21:42.679Z,22.20
2019-03-04T08:24:14.682Z,22.77
2019-03-04T08:26:46.512Z,18.10
2019-03-04T08:29:18.500Z,26.23
2019-03-04T08:31:50.201Z,17.03
2019-03-04T08:34:30.725Z,16.00
2019-03-04T08:36:56.179Z,15.40
2019-03-04T08:39:30.218Z,13.53
2019-03-04T08:42:02.541Z,12.53
2019-03-04T08:44:34.310Z,11.20
2019-03-04T08:47:06.712Z,11.70
2019-03-04T08:49:38.983Z,11.23
2019-03-04T08:52:11.182Z,12.97
2019-03-04T08:54:43.673Z,12.37
2019-03-04T08:57:15.864Z,12.33
2019-03-04T08:59:48.373Z,10.07
2019-03-04T09:02:20.105Z,8.43
2019-03-04T09:04:52.286Z,8.97
2019-03-04T09:07:24.028Z,10.03
2019-03-04T09:09:55.510Z,8.93
2019-03-04T09:12:28.000Z,7.60
2019-03-04T09:15:00.322Z,7.00
2019-03-04T09:17:33.142Z,6.80
2019-03-04T09:20:05.947Z,7.27
2019-03-04T09:22:37.784Z,7.60
2019-03-04T09:25:14.837Z,7.63
2019-03-04T09:27:48.280Z,7.83
2019-03-04T09:30:22.143Z,6.60
2019-03-04T09:32:53.991Z,7.03
2019-03-04T09:35:26.000Z,7.63
2019-03-04T09:37:57.954Z,8.43
2019-03-04T09:40:31.531Z,7.73
2019-03-04T09:43:03.169Z,7.40
2019-03-04T09:45:38.766Z,8.47
2019-03-04T09:48:08.260Z,8.00
2019-03-04T09:50:39.983Z,7.90
2019-03-04T09:53:11.705Z,8.03
2019-03-04T09:55:44.437Z,8.60
2019-03-04T09:58:17.083Z,9.70
2019-03-04T10:01:26.862Z,8.53
2019-03-04T10:04:32.159Z,9.53
2019-03-04T10:08:02.984Z,8.20
2019-03-04T10:11:39.245Z,8.07
2019-03-04T10:15:25.280Z,7.80
2019-03-04T10:19:07.655Z,8.47
2019-03-04T10:22:16.117Z,6.00
2019-03-04T10:25:16.876Z,5.93
2019-03-04T10:28:46.389Z,32.77
2019-03-04T10:31:59.368Z,21.70
2019-03-04T10:35:11.450Z,17.43
2019-03-04T10:38:30.279Z,4.20
2019-03-04T10:41:47.881Z,5.40
2019-03-04T10:44:55.325Z,5.30
2019-03-04T10:47:27.154Z,4.77
2019-03-04T10:49:59.034Z,4.97
2019-03-04T10:52:31.235Z,4.23
2019-03-04T10:55:03.162Z,4.53
2019-03-04T10:57:35.145Z,3.93
2019-03-04T11:00:15.479Z,4.37
2019-03-04T11:02:47.360Z,4.47
2019-03-04T11:05:19.750Z,4.23
2019-03-04T11:07:51.516Z,5.00
2019-03-04T11:10:23.276Z,6.23
2019-03-04T11:12:55.682Z,9.77
2019-03-04T11:15:28.125Z,5.27
2019-03-04T11:18:00.560Z,4.70
2019-03-04T11:20:32.563Z,5.03
2019-03-04T11:23:04.730Z,5.17
2019-03-04T11:25:36.672Z,4.67
2019-03-04T11:28:08.538Z,4.43
2019-03-04T11:30:40.829Z,6.50
2019-03-04T11:33:12.629Z,4.20
2019-03-04T11:35:44.429Z,6.90
2019-03-04T11:38:42.664Z,9.10
2019-03-04T11:41:21.901Z,5.10
2019-03-04T11:43:53.859Z,3.90
2019-03-04T11:46:25.705Z,5.37
2019-03-04T11:48:57.495Z,4.47
2019-03-04T11:51:29.287Z,4.50
2019-03-04T11:54:01.807Z,3.93
2019-03-04T11:56:37.084Z,3.73
2019-03-04T12:07:25.356Z,6.77
2019-03-04T12:09:57.450Z,3.67
2019-03-04T12:12:29.410Z,4.40
2019-03-04T12:15:01.606Z,3.50
2019-03-04T12:17:33.831Z,3.97
2019-03-04T12:20:06.686Z,3.20
2019-03-04T12:22:38.603Z,2.50
2019-03-04T12:25:13.660Z,7.57
2019-03-04T12:27:47.718Z,6.40
2019-03-04T12:30:20.655Z,2.87
2019-03-04T12:32:52.545Z,3.30
2019-03-04T12:35:24.423Z,3.90
2019-03-04T12:38:03.187Z,2.80
2019-03-04T12:40:35.062Z,5.17
2019-03-04T12:43:06.898Z,2.70
2019-03-04T12:45:38.755Z,3.63
2019-03-04T12:48:11.520Z,10.30
2019-03-04T12:50:43.208Z,3.10
2019-03-04T12:53:14.930Z,3.70
2019-03-04T12:55:46.961Z,3.73
2019-03-04T12:58:19.216Z,2.97
2019-03-04T13:00:50.882Z,5.23
2019-03-04T13:03:26.735Z,2.97
2019-03-04T13:05:58.463Z,4.87
2019-03-04T13:08:30.247Z,4.30
2019-03-04T13:11:02.043Z,4.93
2019-03-04T13:13:34.285Z,3.10
2019-03-04T13:16:06.433Z,3.20
2019-03-04T13:18:38.159Z,3.00
2019-03-04T13:21:10.649Z,3.20
2019-03-04T13:23:43.365Z,5.00
2019-03-04T13:26:15.209Z,17.30
2019-03-04T13:28:47.647Z,32.97
2019-03-04T13:31:19.341Z,14.57
2019-03-04T13:33:51.273Z,4.53
2019-03-04T13:36:23.134Z,5.37
2019-03-04T13:38:55.557Z,21.90
2019-03-04T13:41:27.336Z,5.00
2019-03-04T13:43:59.213Z,3.00
2019-03-04T13:46:31.100Z,6.63
2019-03-04T13:49:02.960Z,5.83
2019-03-04T13:51:35.088Z,4.10
2019-03-04T13:54:07.476Z,3.07
2019-03-04T13:56:40.100Z,3.83
2019-03-04T13:59:12.873Z,3.77
2019-03-04T14:01:44.436Z,3.50
2019-03-04T14:04:16.058Z,5.10
2019-03-04T14:06:47.918Z,3.00
2019-03-04T14:09:21.754Z,4.77
2019-03-04T14:11:53.633Z,5.53
2019-03-04T14:14:25.776Z,2.83
2019-03-04T14:16:58.080Z,7.20
2019-03-04T14:19:30.238Z,7.73
2019-03-04T14:22:02.334Z,5.97
2019-03-04T14:24:35.271Z,4.50
2019-03-04T14:27:07.972Z,6.33
2019-03-04T14:29:39.967Z,4.10
2019-03-04T14:32:11.592Z,6.93
2019-03-04T14:34:43.891Z,3.40
2019-03-04T14:37:18.207Z,4.93
2019-03-04T14:39:50.361Z,3.63
2019-03-04T14:42:22.662Z,3.87
2019-03-04T14:44:54.597Z,5.63
2019-03-04T14:47:26.411Z,3.30
2019-03-04T14:50:09.203Z,6.70
2019-03-04T14:52:33.466Z,3.67
2019-03-04T14:55:05.439Z,5.53
2019-03-04T14:57:37.604Z,3.50
2019-03-04T15:00:25.646Z,3.33
2019-03-04T15:02:57.719Z,3.27
2019-03-04T15:05:29.782Z,3.20
2019-03-04T15:08:01.679Z,3.27
2019-03-04T15:10:34.896Z,3.50
2019-03-04T15:13:07.189Z,6.60
2019-03-04T15:15:39.493Z,4.77
2019-03-04T15:18:11.809Z,5.00
2019-03-04T15:20:46.442Z,4.53
2019-03-04T15:23:18.878Z,3.37
2019-03-04T15:25:50.579Z,4.30
2019-03-04T15:28:28.254Z,3.80
2019-03-04T15:31:04.169Z,4.67
2019-03-04T15:33:38.358Z,4.70
2019-03-04T15:36:09.955Z,3.53
2019-03-04T15:38:42.345Z,3.23
2019-03-04T15:41:14.090Z,3.23
2019-03-04T15:43:45.959Z,3.00
2019-03-04T15:46:18.561Z,3.57
2019-03-04T15:48:50.959Z,3.40
2019-03-04T15:51:23.126Z,3.23
2019-03-04T15:53:55.847Z,3.20
2019-03-04T15:56:28.097Z,3.23
2019-03-04T15:59:00.294Z,3.90
2019-03-04T16:01:32.259Z,2.93
2019-03-04T16:04:04.199Z,3.70
2019-03-04T16:06:36.316Z,3.20
2019-03-04T16:09:16.145Z,3.27
2019-03-04T16:11:48.231Z,3.17
2019-03-04T16:14:20.280Z,3.47
2019-03-04T16:16:52.795Z,2.80
2019-03-04T16:19:24.903Z,3.07
2019-03-04T16:21:56.834Z,3.00
2019-03-04T16:24:28.774Z,3.10
2019-03-04T16:27:09.182Z,4.00
2019-03-04T16:29:41.018Z,3.13
2019-03-04T16:32:14.686Z,3.63
2019-03-04T16:34:46.397Z,3.47
2019-03-04T16:37:18.567Z,4.30
2019-03-04T16:39:50.880Z,4.10
2019-03-04T16:42:22.683Z,3.50
2019-03-04T16:44:54.601Z,3.97
2019-03-04T16:47:27.005Z,3.83
2019-03-04T16:49:58.927Z,3.43
2019-03-04T16:52:32.662Z,5.90
2019-03-04T16:55:05.700Z,4.83
2019-03-04T16:57:37.930Z,3.67
2019-03-04T17:00:13.108Z,6.03
2019-03-04T17:02:46.138Z,4.33
2019-03-04T17:05:19.240Z,4.40
2019-03-04T17:07:52.121Z,3.73
2019-03-04T17:10:24.268Z,10.57
2019-03-04T17:12:56.172Z,3.80
2019-03-04T17:15:28.110Z,3.67
2019-03-04T17:17:59.789Z,3.97
2019-03-04T17:20:31.908Z,4.40
2019-03-04T17:23:04.278Z,4.43
2019-03-04T17:25:36.996Z,3.87
2019-03-04T17:28:09.878Z,3.73
2019-03-04T17:30:43.035Z,3.80
2019-03-04T17:33:15.775Z,4.00
2019-03-04T17:35:48.163Z,4.00
2019-03-04T17:38:20.964Z,3.93
2019-03-04T17:40:56.404Z,4.60
2019-03-04T17:43:28.501Z,4.13
2019-03-04T17:46:01.667Z,3.80
2019-03-04T17:48:33.797Z,3.47
2019-03-04T17:51:06.295Z,3.53
2019-03-04T17:53:38.805Z,4.40
2019-03-04T17:56:11.020Z,4.80
2019-03-04T17:58:43.708Z,4.77
2019-03-04T18:01:15.961Z,3.83
2019-03-04T18:03:48.906Z,4.10
2019-03-04T18:06:20.907Z,4.37
2019-03-04T18:08:53.145Z,6.17
2019-03-04T18:11:25.653Z,4.80
2019-03-04T18:13:57.834Z,6.93
2019-03-04T18:16:30.120Z,5.10
2019-03-04T18:19:03.494Z,40.83
2019-03-04T18:21:37.701Z,8.67
2019-03-04T18:24:09.872Z,5.13
2019-03-04T18:27:17.592Z,5.30
2019-03-04T18:30:50.247Z,5.50
2019-03-04T18:34:32.366Z,4.83
2019-03-04T18:37:58.582Z,5.03
2019-03-04T18:41:49.288Z,6.20
2019-03-04T18:45:29.887Z,6.47
2019-03-04T18:48:56.523Z,6.87
2019-03-04T18:51:32.909Z,5.60
2019-03-04T18:54:11.872Z,4.50
2019-03-04T18:56:46.119Z,4.77
2019-03-04T18:59:18.370Z,5.20
2019-03-04T19:01:51.027Z,5.17
2019-03-04T19:04:23.298Z,6.87
2019-03-04T19:06:56.470Z,4.80
2019-03-04T19:09:33.011Z,4.80
2019-03-04T19:12:06.177Z,4.93
2019-03-04T19:14:39.690Z,5.57
2019-03-04T19:17:11.904Z,4.70
2019-03-04T19:19:45.787Z,5.67
2019-03-04T19:22:20.297Z,5.00
2019-03-04T19:24:53.250Z,5.47
2019-03-04T19:27:25.061Z,5.20
2019-03-04T19:29:57.760Z,6.10
2019-03-04T19:32:33.773Z,7.63
2019-03-04T19:35:06.963Z,7.33
2019-03-04T19:37:39.515Z,4.87
2019-03-04T19:40:12.609Z,5.20
2019-03-04T19:42:47.173Z,6.50
2019-03-04T19:45:20.748Z,5.70
2019-03-04T19:47:54.836Z,5.10
2019-03-04T19:50:27.122Z,5.07
2019-03-04T19:52:59.347Z,4.90
2019-03-04T19:55:31.576Z,5.40
2019-03-04T19:58:04.073Z,5.57
2019-03-04T20:00:36.302Z,5.33
2019-03-04T20:03:10.218Z,5.50
2019-03-04T20:05:48.231Z,5.80
2019-03-04T20:08:21.644Z,5.67
2019-03-04T20:10:54.764Z,6.50
2019-03-04T20:13:27.863Z,7.37
2019-03-04T20:16:00.238Z,6.67
2019-03-04T20:18:32.281Z,6.50
2019-03-04T20:21:05.895Z,6.70
2019-03-04T20:23:39.258Z,6.97
2019-03-04T20:26:11.482Z,5.87
2019-03-04T20:28:45.697Z,7.23
2019-03-04T20:31:18.502Z,6.33
2019-03-04T20:33:51.115Z,5.90
2019-03-04T20:36:23.439Z,6.80
2019-03-04T20:38:55.671Z,6.67
2019-03-04T20:41:28.143Z,7.57
2019-03-04T20:44:00.405Z,6.50
2019-03-04T20:46:32.381Z,5.77
2019-03-04T20:49:04.649Z,7.33
2019-03-04T20:51:38.430Z,5.60
2019-03-04T20:54:11.114Z,7.40
2019-03-04T20:56:43.221Z,8.37
2019-03-04T20:59:16.839Z,5.97
2019-03-04T21:01:49.703Z,7.13
2019-03-04T21:04:21.789Z,7.17
2019-03-04T21:06:53.977Z,7.23
2019-03-04T21:09:26.825Z,7.47
2019-03-04T21:11:59.007Z,6.37
2019-03-04T21:14:31.122Z,6.57
2019-03-04T21:17:02.813Z,6.53
2019-03-04T21:19:34.623Z,5.77
2019-03-04T21:22:06.755Z,7.10
2019-03-04T21:24:39.180Z,7.10
2019-03-04T21:27:11.492Z,6.90
2019-03-04T21:30:31.842Z,7.33
2019-03-04T21:33:21.889Z,7.03
2019-03-04T21:37:02.438Z,6.97
2019-03-04T21:39:36.776Z,8.30
2019-03-04T21:42:38.286Z,7.30
2019-03-04T21:45:38.381Z,6.83
2019-03-04T21:48:32.383Z,7.47
2019-03-04T21:51:38.201Z,8.23
2019-03-04T21:54:08.811Z,6.17
2019-03-04T21:57:23.239Z,7.93
2019-03-04T21:59:55.046Z,7.43
2019-03-04T22:02:45.803Z,7.30
2019-03-04T22:05:18.401Z,7.63
2019-03-04T22:07:50.756Z,7.73
2019-03-04T22:10:22.602Z,7.37
2019-03-04T22:12:54.525Z,7.60
2019-03-04T22:15:27.718Z,7.87
2019-03-04T22:18:00.074Z,7.87
2019-03-04T22:20:32.012Z,7.50
2019-03-04T22:23:04.015Z,8.13
2019-03-04T22:25:36.074Z,8.30
2019-03-04T22:28:08.211Z,8.07
2019-03-04T22:30:40.262Z,7.67
2019-03-04T22:33:11.903Z,8.97
2019-03-04T22:35:43.612Z,8.40
2019-03-04T22:38:16.154Z,7.53
2019-03-04T22:40:49.351Z,8.33
2019-03-04T22:43:21.010Z,8.40
2019-03-04T22:45:52.907Z,8.30
2019-03-04T22:48:25.165Z,9.03
2019-03-04T22:50:56.977Z,7.87
2019-03-04T22:53:28.896Z,8.60
2019-03-04T22:56:00.864Z,7.83
2019-03-04T22:58:32.904Z,8.20
2019-03-04T23:01:39.978Z,7.90
2019-03-04T23:05:13.807Z,8.80
2019-03-04T23:07:53.312Z,9.07
2019-03-04T23:10:59.712Z,9.10
2019-03-04T23:14:05.131Z,9.43
2019-03-04T23:16:37.499Z,9.00
2019-03-04T23:19:09.203Z,8.70
2019-03-04T23:21:43.365Z,8.77
2019-03-04T23:24:14.900Z,8.47
2019-03-04T23:26:46.573Z,9.23
2019-03-04T23:29:18.328Z,10.40
2019-03-04T23:31:50.560Z,10.50
2019-03-04T23:34:22.208Z,9.77
2019-03-04T23:36:53.817Z,9.20
2019-03-04T23:39:25.452Z,9.00
2019-03-04T23:41:57.534Z,10.53
2019-03-04T23:44:29.345Z,9.27
2019-03-04T23:47:01.004Z,9.40
2019-03-04T23:49:33.101Z,9.00
2019-03-04T23:52:05.258Z,9.10
2019-03-04T23:54:37.371Z,9.47
2019-03-04T23:57:09.285Z,9.00
2019-03-04T23:59:42.593Z,9.23
